createdAt,value
2019-02-07T07:16:37.439Z,-1.80
2019-02-07T07:19:24.158Z,-1.60
2019-02-07T07:22:13.165Z,-1.50
2019-02-07T07:24:59.590Z,-1.30
2019-02-07T07:27:53.608Z,-1.30
2019-02-07T07:30:48.512Z,-1.20
2019-02-07T07:33:35.014Z,-1.10
2019-02-07T07:36:29.422Z,-0.90
2019-02-07T07:39:26.233Z,-0.80
2019-02-07T07:42:12.990Z,-0.70
2019-02-07T07:44:59.684Z,-0.60
2019-02-07T07:47:46.751Z,-0.50
2019-02-07T07:50:47.052Z,-0.40
2019-02-07T07:53:35.238Z,-0.30
2019-02-07T07:56:20.083Z,-0.20
2019-02-07T07:59:06.600Z,-0.10
2019-02-07T08:01:53.602Z,0.10
2019-02-07T08:04:50.694Z,0.20
2019-02-07T08:07:38.494Z,0.30
2019-02-07T08:10:30.627Z,0.40
2019-02-07T08:13:21.097Z,0.60
2019-02-07T08:16:23.380Z,0.70
2019-02-07T08:19:10.009Z,0.80
2019-02-07T08:21:53.022Z,0.90
2019-02-07T08:24:34.986Z,1.00
2019-02-07T08:27:21.844Z,1.10
2019-02-07T08:30:02.266Z,1.20
2019-02-07T08:32:44.550Z,1.30
2019-02-07T08:35:35.585Z,1.30
2019-02-07T08:38:30.801Z,1.30
2019-02-07T08:41:24.428Z,1.30
2019-02-07T08:44:15.312Z,1.40
2019-02-07T08:47:01.830Z,1.50
2019-02-07T08:49:49.149Z,1.60
2019-02-07T08:52:32.844Z,1.70
2019-02-07T08:55:21.886Z,1.80
2019-02-07T08:58:00.625Z,2.00
2019-02-07T09:00:36.894Z,2.10
2019-02-07T09:03:23.641Z,2.20
2019-02-07T09:06:08.045Z,2.40
2019-02-07T09:08:50.679Z,2.50
2019-02-07T09:11:37.245Z,2.60
2019-02-07T09:14:31.045Z,2.70
2019-02-07T09:17:06.797Z,2.80
2019-02-07T09:19:54.612Z,3.00
2019-02-07T09:22:34.477Z,3.10
2019-02-07T09:25:13.200Z,3.20
2019-02-07T09:28:10.456Z,3.20
2019-02-07T09:31:00.716Z,3.40
2019-02-07T09:33:46.784Z,3.50
2019-02-07T09:36:31.813Z,3.60
2019-02-07T09:39:18.698Z,3.70
2019-02-07T09:41:56.716Z,3.80
2019-02-07T09:44:42.619Z,3.90
2019-02-07T09:47:21.939Z,4.00
2019-02-07T09:50:24.995Z,4.00
2019-02-07T09:53:01.837Z,4.00
2019-02-07T09:55:39.003Z,3.90
2019-02-07T09:58:26.645Z,4.10
2019-02-07T10:01:20.498Z,4.20
2019-02-07T10:04:03.841Z,4.10
2019-02-07T10:06:43.461Z,4.20
2019-02-07T10:09:23.220Z,4.20
2019-02-07T10:12:22.881Z,4.30
2019-02-07T10:15:14.357Z,4.30
2019-02-07T10:18:03.822Z,4.20
2019-02-07T10:20:46.372Z,4.20
2019-02-07T10:23:25.089Z,4.10
2019-02-07T10:26:12.296Z,4.10
2019-02-07T10:28:59.146Z,4.10
2019-02-07T10:31:45.621Z,4.20
2019-02-07T10:34:32.336Z,4.30
2019-02-07T10:37:20.108Z,4.50
2019-02-07T10:40:16.913Z,4.40
2019-02-07T10:42:56.504Z,4.50
2019-02-07T10:45:43.763Z,4.70
2019-02-07T10:48:30.032Z,4.70
2019-02-07T10:51:05.492Z,4.80
2019-02-07T10:53:43.676Z,4.80
2019-02-07T10:56:31.476Z,4.70
2019-02-07T10:59:31.308Z,4.80
2019-02-07T11:02:17.730Z,4.90
2019-02-07T11:05:09.505Z,4.90
2019-02-07T11:07:56.268Z,4.70
2019-02-07T11:10:44.061Z,4.70
2019-02-07T11:13:32.774Z,4.70
2019-02-07T11:16:24.703Z,4.70
2019-02-07T11:19:30.798Z,4.60
2019-02-07T11:22:17.462Z,4.50
2019-02-07T11:25:03.703Z,4.60
2019-02-07T11:27:42.727Z,4.60
2019-02-07T11:30:42.561Z,4.50
2019-02-07T11:33:29.212Z,4.60
2019-02-07T11:36:17.010Z,4.60
2019-02-07T11:39:03.858Z,4.60
2019-02-07T11:41:46.372Z,4.70
2019-02-07T11:44:51.305Z,4.60
2019-02-07T11:47:42.729Z,4.60
2019-02-07T11:50:29.277Z,4.60
2019-02-07T11:53:17.173Z,4.60
2019-02-07T11:55:56.014Z,4.60
2019-02-07T11:58:35.942Z,4.60
2019-02-07T12:01:36.530Z,4.60
2019-02-07T12:04:23.610Z,4.60
2019-02-07T12:07:10.470Z,4.50
2019-02-07T12:10:07.542Z,4.60
2019-02-07T12:12:45.059Z,4.60
2019-02-07T12:15:32.294Z,4.60
2019-02-07T12:18:11.817Z,4.60
2019-02-07T12:21:18.168Z,4.50
2019-02-07T12:23:56.490Z,4.40
2019-02-07T12:26:44.376Z,4.40
2019-02-07T12:29:27.241Z,4.40
2019-02-07T12:32:09.567Z,4.40
2019-02-07T12:34:49.704Z,4.30
2019-02-07T12:37:38.976Z,4.20
2019-02-07T12:40:37.712Z,4.30
2019-02-07T12:43:19.669Z,4.30
2019-02-07T12:46:06.778Z,4.20
2019-02-07T12:48:42.114Z,4.20
2019-02-07T12:51:21.869Z,4.20
2019-02-07T12:54:08.679Z,4.30
2019-02-07T12:56:59.181Z,4.30
2019-02-07T12:59:53.018Z,4.30
2019-02-07T13:03:12.245Z,4.30
2019-02-07T13:06:08.445Z,4.40
2019-02-07T13:08:58.456Z,4.30
2019-02-07T13:11:46.396Z,4.30
2019-02-07T13:14:33.255Z,4.30
2019-02-07T13:17:20.088Z,4.30
2019-02-07T13:20:02.423Z,4.40
2019-02-07T13:22:56.141Z,4.30
2019-02-07T13:25:42.670Z,4.30
2019-02-07T13:28:22.175Z,4.30
2019-02-07T13:31:08.717Z,4.20
2019-02-07T13:33:45.091Z,4.20
2019-02-07T13:36:28.466Z,4.20
2019-02-07T13:39:06.016Z,4.20
2019-02-07T13:41:53.792Z,4.20
2019-02-07T13:44:51.010Z,4.30
2019-02-07T13:47:38.868Z,4.20
2019-02-07T13:50:26.681Z,4.00
2019-02-07T13:53:13.432Z,3.90
2019-02-07T13:56:03.044Z,3.90
2019-02-07T13:58:38.703Z,3.80
2019-02-07T14:01:26.548Z,3.90
2019-02-07T14:04:13.460Z,3.90
2019-02-07T14:06:53.395Z,3.80
2019-02-07T14:09:48.720Z,3.70
2019-02-07T14:12:35.176Z,3.60
2019-02-07T14:15:23.172Z,3.60
2019-02-07T14:18:10.880Z,3.60
2019-02-07T14:20:58.297Z,3.60
2019-02-07T14:23:44.981Z,3.60
2019-02-07T14:26:32.760Z,3.70
2019-02-07T14:29:19.924Z,3.80
2019-02-07T14:32:10.776Z,3.80
2019-02-07T14:35:01.712Z,3.70
2019-02-07T14:37:47.648Z,3.60
2019-02-07T14:40:35.526Z,3.50
2019-02-07T14:43:32.500Z,3.40
2019-02-07T14:46:14.144Z,3.30
2019-02-07T14:48:45.191Z,3.20
2019-02-07T14:51:13.216Z,3.10
2019-02-07T14:53:41.979Z,3.10
2019-02-07T14:56:10.645Z,3.10
2019-02-07T14:58:39.329Z,3.00
2019-02-07T15:01:08.441Z,3.00
2019-02-07T15:03:37.130Z,2.90
2019-02-07T15:06:05.966Z,2.90
2019-02-07T15:08:34.640Z,2.90
2019-02-07T15:11:03.386Z,2.90
2019-02-07T15:13:32.066Z,2.80
2019-02-07T15:16:00.741Z,2.80
2019-02-07T15:18:29.498Z,2.80
2019-02-07T15:20:58.244Z,2.80
2019-02-07T15:23:27.006Z,2.80
2019-02-07T15:25:55.681Z,2.70
2019-02-07T15:28:24.349Z,2.70
2019-02-07T15:30:53.166Z,2.60
2019-02-07T15:33:22.219Z,2.60
2019-02-07T15:35:51.688Z,2.50
2019-02-07T15:38:20.451Z,2.50
2019-02-07T15:40:49.991Z,2.40
2019-02-07T15:43:18.724Z,2.40
2019-02-07T15:45:47.400Z,2.50
2019-02-07T15:48:16.549Z,2.40
2019-02-07T15:50:45.383Z,2.40
2019-02-07T15:53:14.198Z,2.30
2019-02-07T15:55:42.889Z,2.30
2019-02-07T15:58:11.549Z,2.20
2019-02-07T16:01:08.435Z,2.30
2019-02-07T16:03:47.830Z,2.20
2019-02-07T16:06:16.585Z,2.10
2019-02-07T16:08:45.256Z,2.10
2019-02-07T16:11:14.409Z,2.10
2019-02-07T16:13:43.085Z,2.10
2019-02-07T16:16:11.845Z,2.10
2019-02-07T16:18:41.935Z,2.10
2019-02-07T16:21:10.889Z,2.00
2019-02-07T16:23:39.625Z,2.00
2019-02-07T16:26:08.851Z,2.00
2019-02-07T16:28:37.517Z,2.00
2019-02-07T16:31:06.555Z,2.00
2019-02-07T16:33:35.228Z,2.00
2019-02-07T16:36:04.635Z,2.00
2019-02-07T16:38:33.380Z,2.00
2019-02-07T16:41:02.071Z,2.00
2019-02-07T16:43:31.062Z,2.00
2019-02-07T16:45:59.749Z,2.00
2019-02-07T16:48:28.515Z,2.00
2019-02-07T16:51:00.273Z,2.00
2019-02-07T16:53:27.670Z,1.90
2019-02-07T16:55:56.420Z,1.90
2019-02-07T16:58:25.088Z,1.90
2019-02-07T17:00:53.966Z,1.80
2019-02-07T17:03:22.661Z,1.80
2019-02-07T17:05:51.428Z,1.80
2019-02-07T17:08:20.122Z,1.70
2019-02-07T17:10:49.192Z,1.70
2019-02-07T17:13:18.140Z,1.70
2019-02-07T17:15:47.000Z,1.70
2019-02-07T17:18:15.674Z,1.70
2019-02-07T17:20:44.360Z,1.80
2019-02-07T17:23:13.118Z,1.80
2019-02-07T17:25:41.933Z,1.80
2019-02-07T17:28:11.101Z,1.80
2019-02-07T17:30:39.870Z,1.80
2019-02-07T17:33:08.550Z,1.80
2019-02-07T17:35:37.304Z,1.90
2019-02-07T17:38:06.129Z,1.90
2019-02-07T17:40:34.822Z,1.90
2019-02-07T17:43:03.669Z,1.90
2019-02-07T17:45:32.776Z,2.00
2019-02-07T17:48:01.501Z,2.00
2019-02-07T17:50:32.131Z,1.90
2019-02-07T17:53:01.837Z,2.00
2019-02-07T17:55:30.510Z,2.00
2019-02-07T17:57:59.186Z,1.90
2019-02-07T18:00:46.151Z,2.00
2019-02-07T18:03:14.875Z,2.00
2019-02-07T18:05:43.883Z,2.10
2019-02-07T18:08:12.632Z,2.00
2019-02-07T18:10:41.489Z,2.10
2019-02-07T18:13:10.610Z,2.10
2019-02-07T18:15:39.352Z,2.10
2019-02-07T18:18:08.273Z,2.10
2019-02-07T18:20:36.945Z,2.10
2019-02-07T18:23:05.860Z,2.10
2019-02-07T18:25:34.605Z,2.10
2019-02-07T18:28:03.920Z,2.20
2019-02-07T18:30:32.729Z,2.10
2019-02-07T18:33:01.406Z,2.10
2019-02-07T18:35:30.190Z,2.10
2019-02-07T18:37:58.865Z,2.00
2019-02-07T18:40:28.053Z,2.00
2019-02-07T18:42:56.738Z,2.00
2019-02-07T18:45:25.480Z,2.00
2019-02-07T18:47:54.234Z,1.90
2019-02-07T18:50:31.220Z,2.00
2019-02-07T18:52:59.983Z,2.00
2019-02-07T18:55:28.717Z,2.00
2019-02-07T18:57:57.549Z,2.00
2019-02-07T19:00:28.394Z,2.10
2019-02-07T19:02:57.221Z,2.20
2019-02-07T19:05:25.897Z,2.20
2019-02-07T19:07:54.594Z,2.20
2019-02-07T19:10:24.137Z,2.30
2019-02-07T19:12:52.821Z,2.30
2019-02-07T19:15:27.453Z,2.40
2019-02-07T19:17:56.231Z,2.30
2019-02-07T19:20:24.962Z,2.30
2019-02-07T19:22:53.748Z,2.20
2019-02-07T19:25:22.420Z,2.30
2019-02-07T19:27:51.112Z,2.30
2019-02-07T19:30:28.380Z,2.30
2019-02-07T19:32:57.717Z,2.30
2019-02-07T19:35:26.587Z,2.40
2019-02-07T19:37:55.416Z,2.40
2019-02-07T19:40:24.162Z,2.30
2019-02-07T19:42:53.056Z,2.30
2019-02-07T19:45:21.970Z,2.20
2019-02-07T19:47:50.648Z,2.20
2019-02-07T19:50:21.441Z,2.20
2019-02-07T19:52:50.364Z,2.30
2019-02-07T19:55:21.065Z,2.30
2019-02-07T19:57:49.745Z,2.30
2019-02-07T20:00:20.712Z,2.30
2019-02-07T20:02:49.758Z,2.30
2019-02-07T20:05:18.565Z,2.30
2019-02-07T20:07:47.397Z,2.20
2019-02-07T20:10:18.016Z,2.30
2019-02-07T20:12:47.218Z,2.30
2019-02-07T20:15:22.301Z,2.30
2019-02-07T20:17:50.994Z,2.20
2019-02-07T20:20:19.817Z,2.30
2019-02-07T20:22:48.585Z,2.20
2019-02-07T20:25:17.725Z,2.10
2019-02-07T20:27:46.587Z,2.10
2019-02-07T20:30:18.918Z,2.10
2019-02-07T20:32:47.612Z,2.10
2019-02-07T20:35:16.421Z,2.10
2019-02-07T20:37:45.253Z,2.10
2019-02-07T20:40:15.637Z,2.00
2019-02-07T20:42:44.308Z,2.00
2019-02-07T20:45:13.232Z,2.00
2019-02-07T20:47:42.380Z,1.90
2019-02-07T20:50:14.047Z,1.90
2019-02-07T20:52:42.815Z,1.90
2019-02-07T20:55:11.933Z,1.90
2019-02-07T20:57:40.621Z,1.80
2019-02-07T21:00:15.569Z,1.90
2019-02-07T21:02:44.629Z,1.90
2019-02-07T21:05:13.827Z,1.90
2019-02-07T21:07:42.602Z,1.90
2019-02-07T21:10:12.781Z,1.80
2019-02-07T21:12:41.457Z,1.90
2019-02-07T21:15:29.414Z,1.80
2019-02-07T21:17:58.168Z,1.80
2019-02-07T21:20:27.958Z,1.80
2019-02-07T21:22:57.752Z,1.80
2019-02-07T21:25:31.871Z,1.70
2019-02-07T21:28:00.689Z,1.80
2019-02-07T21:30:30.762Z,1.70
2019-02-07T21:32:59.603Z,1.70
2019-02-07T21:35:28.569Z,1.70
2019-02-07T21:37:57.266Z,1.70
2019-02-07T21:40:27.526Z,1.80
2019-02-07T21:42:57.286Z,1.80
2019-02-07T21:45:26.272Z,1.70
2019-02-07T21:47:55.173Z,1.60
2019-02-07T21:50:25.071Z,1.70
2019-02-07T21:52:53.853Z,1.60
2019-02-07T21:55:24.352Z,1.50
